createdAt,value
2022-08-07T00:03:03.475Z,0.52
2022-08-07T00:06:29.447Z,0.50
2022-08-07T00:10:19.342Z,0.60
2022-08-07T00:13:40.570Z,0.60
2022-08-07T00:17:06.792Z,0.65
2022-08-07T00:20:29.711Z,0.47
2022-08-07T00:23:56.191Z,0.50
2022-08-07T00:27:18.267Z,0.40
2022-08-07T00:30:44.257Z,0.55
2022-08-07T00:34:08.714Z,0.40
2022-08-07T00:37:48.224Z,0.60
2022-08-07T00:41:14.855Z,0.70
2022-08-07T00:44:38.353Z,0.85
2022-08-07T00:48:08.278Z,0.30
2022-08-07T00:51:57.000Z,0.50
2022-08-07T00:55:17.270Z,1.00
2022-08-07T00:58:49.843Z,0.50
2022-08-07T01:02:28.854Z,0.60
2022-08-07T01:05:53.605Z,0.55
2022-08-07T01:10:03.860Z,0.60
2022-08-07T01:12:58.620Z,0.47
2022-08-07T01:16:30.444Z,0.40
2022-08-07T01:19:58.238Z,0.40
2022-08-07T01:23:20.211Z,0.50
2022-08-07T01:26:58.970Z,0.50
2022-08-07T01:30:20.818Z,0.55
2022-08-07T01:33:55.835Z,0.50
2022-08-07T01:37:21.798Z,0.70
2022-08-07T01:40:49.254Z,0.45
2022-08-07T01:44:15.333Z,0.60
2022-08-07T01:48:18.139Z,0.50
2022-08-07T01:52:02.050Z,0.40
2022-08-07T01:55:07.437Z,0.50
2022-08-07T01:58:41.058Z,0.32
2022-08-07T02:02:11.212Z,0.30
2022-08-07T02:06:02.483Z,0.50
2022-08-07T02:09:52.384Z,0.50
2022-08-07T02:13:16.204Z,0.50
2022-08-07T02:16:49.628Z,0.57
2022-08-07T02:20:17.253Z,0.40
2022-08-07T02:23:42.364Z,0.55
2022-08-07T02:27:08.364Z,0.70
2022-08-07T02:30:31.611Z,0.70
2022-08-07T02:34:01.833Z,0.60
2022-08-07T02:37:28.549Z,0.55
2022-08-07T02:40:58.684Z,0.60
2022-08-07T02:44:23.651Z,0.68
2022-08-07T02:47:49.704Z,0.63
2022-08-07T02:51:42.009Z,0.65
2022-08-07T02:55:27.323Z,0.68
2022-08-07T02:58:54.198Z,0.50
2022-08-07T03:02:18.973Z,0.50
2022-08-07T03:05:41.440Z,0.77
2022-08-07T03:09:05.861Z,0.43
2022-08-07T03:12:31.057Z,0.50
2022-08-07T03:15:59.636Z,0.60
2022-08-07T03:19:29.047Z,0.45
2022-08-07T03:22:59.551Z,0.50
2022-08-07T03:26:25.527Z,0.40
2022-08-07T03:29:51.122Z,0.50
2022-08-07T03:33:18.157Z,0.55
2022-08-07T03:36:44.476Z,0.50
2022-08-07T03:40:15.167Z,0.40
2022-08-07T03:43:39.397Z,0.50
2022-08-07T03:47:13.345Z,0.50
2022-08-07T03:50:37.256Z,1.20
2022-08-07T03:54:33.261Z,0.60
2022-08-07T03:58:32.611Z,0.60
2022-08-07T04:01:32.157Z,0.55
2022-08-07T04:04:54.787Z,0.60
2022-08-07T04:08:20.978Z,0.57
2022-08-07T04:12:27.370Z,0.80
2022-08-07T04:15:32.584Z,0.60
2022-08-07T04:18:59.182Z,0.70
2022-08-07T04:22:29.207Z,0.63
2022-08-07T04:25:55.898Z,0.60
2022-08-07T04:29:19.616Z,0.65
2022-08-07T04:32:48.022Z,0.50
2022-08-07T04:36:18.030Z,0.90
2022-08-07T04:39:47.859Z,0.60
2022-08-07T04:43:14.498Z,0.50
2022-08-07T04:47:03.982Z,0.43
2022-08-07T04:50:39.463Z,0.40
2022-08-07T04:54:22.554Z,0.45
2022-08-07T04:58:38.840Z,0.30
2022-08-07T05:02:20.467Z,0.50
2022-08-07T05:05:59.705Z,0.73
2022-08-07T05:09:46.205Z,0.40
2022-08-07T05:14:55.033Z,0.40
2022-08-07T05:17:51.568Z,0.50
2022-08-07T05:21:14.718Z,0.40
2022-08-07T05:24:39.389Z,0.45
2022-08-07T05:28:20.776Z,0.30
2022-08-07T05:31:52.791Z,0.60
2022-08-07T05:35:33.491Z,0.55
2022-08-07T05:39:00.109Z,0.30
2022-08-07T05:42:34.688Z,0.40
2022-08-07T05:46:04.367Z,0.40
2022-08-07T05:49:27.709Z,0.45
2022-08-07T05:53:04.191Z,0.70
2022-08-07T05:56:30.205Z,0.63
2022-08-07T05:59:57.311Z,0.60
2022-08-07T06:03:22.784Z,0.60
2022-08-07T06:06:46.123Z,0.40
2022-08-07T06:10:11.420Z,0.40
2022-08-07T06:14:11.703Z,0.45
2022-08-07T06:17:22.353Z,0.40
2022-08-07T06:20:50.587Z,0.40
2022-08-07T06:24:45.794Z,0.50
2022-08-07T06:28:14.091Z,0.50
2022-08-07T06:31:46.482Z,0.50
2022-08-07T06:35:17.942Z,0.40
2022-08-07T06:38:58.604Z,0.50
2022-08-07T06:42:37.211Z,0.40
2022-08-07T06:46:12.266Z,0.70
2022-08-07T06:49:34.933Z,0.30
2022-08-07T06:54:11.879Z,0.45
2022-08-07T06:56:59.796Z,0.30
2022-08-07T07:00:36.510Z,0.40
2022-08-07T07:04:16.413Z,0.30
2022-08-07T07:08:00.331Z,0.40
2022-08-07T07:12:09.036Z,0.50
2022-08-07T07:15:26.394Z,0.40
2022-08-07T07:19:11.147Z,0.30
2022-08-07T07:24:09.623Z,0.40
2022-08-07T07:26:37.157Z,0.47
2022-08-07T07:30:12.068Z,0.20
2022-08-07T07:33:36.179Z,0.20
2022-08-07T07:37:05.584Z,0.50
2022-08-07T07:40:45.237Z,0.40
2022-08-07T07:44:14.525Z,0.40
2022-08-07T07:47:52.566Z,0.43
2022-08-07T07:51:18.552Z,0.45
2022-08-07T07:54:44.146Z,0.32
2022-08-07T07:58:14.229Z,0.40
2022-08-07T08:02:03.732Z,0.25
2022-08-07T08:05:30.298Z,0.32
2022-08-07T08:09:08.008Z,0.47
2022-08-07T08:12:52.488Z,0.70
2022-08-07T08:16:17.100Z,0.20
2022-08-07T08:20:19.826Z,0.40
2022-08-07T08:23:42.245Z,0.30
2022-08-07T08:27:09.308Z,0.35
2022-08-07T08:30:34.627Z,0.40
2022-08-07T08:33:58.840Z,0.40
2022-08-07T08:38:01.766Z,0.30
2022-08-07T08:41:15.692Z,0.30
2022-08-07T08:44:52.818Z,0.47
2022-08-07T08:48:17.201Z,0.70
2022-08-07T08:52:13.282Z,0.40
2022-08-07T08:55:53.319Z,0.35
2022-08-07T08:59:28.756Z,0.50
2022-08-07T09:02:59.221Z,0.50
2022-08-07T09:06:48.258Z,0.40
2022-08-07T09:10:24.390Z,0.50
2022-08-07T09:14:10.976Z,0.50
2022-08-07T09:17:59.011Z,0.40
2022-08-07T09:22:10.084Z,0.50
2022-08-07T09:25:24.564Z,0.47
2022-08-07T09:30:06.491Z,0.40
2022-08-07T09:32:50.184Z,0.30
2022-08-07T09:36:22.915Z,0.50
2022-08-07T09:39:57.954Z,0.43
2022-08-07T09:44:05.910Z,0.50
2022-08-07T09:48:19.555Z,0.40
2022-08-07T09:52:10.080Z,0.60
2022-08-07T09:56:15.030Z,0.43
2022-08-07T10:00:01.798Z,0.30
2022-08-07T10:04:14.063Z,0.47
2022-08-07T10:08:14.162Z,0.43
2022-08-07T10:12:21.562Z,0.30
2022-08-07T10:16:11.297Z,0.60
2022-08-07T10:20:14.018Z,0.30
2022-08-07T10:24:08.565Z,0.40
2022-08-07T10:27:46.278Z,0.50
2022-08-07T10:31:41.508Z,0.68
2022-08-07T10:35:16.593Z,0.43
2022-08-07T10:39:05.482Z,0.60
2022-08-07T10:42:42.521Z,0.30
2022-08-07T10:46:13.375Z,0.30
2022-08-07T10:49:49.746Z,0.50
2022-08-07T10:53:43.925Z,0.60
2022-08-07T10:57:18.608Z,0.52
2022-08-07T11:01:22.197Z,0.43
2022-08-07T11:04:57.794Z,0.50
2022-08-07T11:08:34.332Z,0.50
2022-08-07T11:12:04.326Z,0.60
2022-08-07T11:15:32.250Z,0.60
2022-08-07T11:19:29.272Z,0.60
2022-08-07T11:23:12.472Z,0.40
2022-08-07T11:27:16.463Z,0.55
2022-08-07T11:30:48.242Z,0.47
2022-08-07T11:34:47.582Z,0.50
2022-08-07T11:38:30.331Z,0.50
2022-08-07T11:42:37.073Z,0.80
2022-08-07T11:46:40.247Z,0.90
2022-08-07T11:50:31.612Z,0.50
2022-08-07T11:54:11.801Z,0.55
2022-08-07T11:57:59.360Z,0.57
2022-08-07T12:01:59.818Z,0.43
2022-08-07T12:05:47.239Z,0.60
2022-08-07T12:09:58.566Z,0.43
2022-08-07T12:13:45.119Z,0.50
2022-08-07T12:17:19.947Z,0.63
2022-08-07T12:20:51.592Z,0.55
2022-08-07T12:24:37.544Z,0.63
2022-08-07T12:28:09.794Z,0.60
2022-08-07T12:32:01.691Z,0.60
2022-08-07T12:35:29.318Z,0.52
2022-08-07T12:38:59.727Z,0.55
2022-08-07T12:42:27.628Z,0.45
2022-08-07T12:46:09.627Z,0.50
2022-08-07T12:49:56.687Z,0.40
2022-08-07T12:54:03.078Z,0.32
2022-08-07T12:57:25.426Z,0.50
2022-08-07T13:01:09.226Z,0.63
2022-08-07T13:05:02.618Z,0.50
2022-08-07T13:08:48.874Z,0.40
2022-08-07T13:12:16.734Z,0.55
2022-08-07T13:15:42.585Z,0.68
2022-08-07T13:19:25.315Z,0.35
2022-08-07T13:24:01.162Z,0.50
2022-08-07T13:27:02.982Z,0.70
2022-08-07T13:30:40.319Z,0.68
2022-08-07T13:34:35.456Z,0.50
2022-08-07T13:38:08.501Z,0.50
2022-08-07T13:41:43.686Z,0.40
2022-08-07T13:45:21.069Z,0.40
2022-08-07T13:48:59.392Z,0.40
2022-08-07T13:52:32.432Z,0.60
2022-08-07T13:55:58.822Z,0.40
2022-08-07T13:59:27.405Z,0.50
2022-08-07T14:02:54.333Z,0.50
2022-08-07T14:06:17.185Z,0.40
2022-08-07T14:10:02.226Z,0.50
2022-08-07T14:13:33.410Z,0.50
2022-08-07T14:16:59.892Z,0.43
2022-08-07T14:20:42.944Z,0.43
2022-08-07T14:24:33.488Z,0.73
2022-08-07T14:28:10.587Z,0.60
2022-08-07T14:31:43.338Z,0.60
2022-08-07T14:35:43.002Z,0.52
2022-08-07T14:39:04.166Z,0.52
2022-08-07T14:42:32.256Z,0.40
2022-08-07T14:45:58.421Z,0.80
2022-08-07T14:49:57.355Z,0.52
2022-08-07T14:53:11.352Z,0.50
2022-08-07T14:56:41.447Z,0.88
2022-08-07T15:00:06.675Z,0.40
2022-08-07T15:03:52.141Z,0.50
2022-08-07T15:07:18.035Z,0.70
2022-08-07T15:10:58.772Z,0.60
2022-08-07T15:18:34.123Z,0.90
2022-08-07T15:22:04.613Z,0.75
2022-08-07T15:25:36.695Z,0.50
2022-08-07T15:30:04.652Z,0.55
2022-08-07T15:37:03.706Z,0.40
2022-08-07T15:40:34.341Z,0.50
2022-08-07T15:44:03.732Z,0.70
2022-08-07T15:48:00.016Z,0.85
2022-08-07T15:51:12.878Z,0.63
2022-08-07T15:54:39.423Z,0.50
2022-08-07T15:58:03.750Z,0.60
2022-08-07T16:01:38.479Z,0.50
2022-08-07T16:05:15.002Z,0.60
2022-08-07T16:08:42.503Z,0.70
2022-08-07T16:13:01.376Z,0.90
2022-08-07T16:16:43.332Z,0.50
2022-08-07T16:20:56.755Z,0.60
2022-08-07T16:25:22.825Z,0.60
2022-08-07T16:30:07.886Z,0.68
2022-08-07T16:32:54.602Z,0.63
2022-08-07T16:36:23.013Z,0.82
2022-08-07T16:40:28.292Z,0.57
2022-08-07T16:44:47.419Z,0.70
2022-08-07T16:48:28.460Z,0.60
2022-08-07T16:52:51.850Z,0.65
2022-08-07T16:55:48.055Z,0.43
2022-08-07T17:00:04.133Z,0.60
2022-08-07T17:03:59.389Z,0.50
2022-08-07T17:07:55.916Z,0.50
2022-08-07T17:11:22.151Z,0.50
2022-08-07T17:14:43.804Z,0.50
2022-08-07T17:18:32.207Z,0.57
2022-08-07T17:22:02.752Z,0.65
2022-08-07T17:25:52.025Z,0.52
2022-08-07T17:30:14.949Z,0.50
2022-08-07T17:34:09.180Z,0.55
2022-08-07T17:38:05.419Z,1.05
2022-08-07T17:42:03.993Z,0.60
2022-08-07T17:44:58.424Z,0.85
2022-08-07T17:48:30.884Z,0.60
2022-08-07T17:52:00.445Z,0.90
2022-08-07T17:56:00.940Z,0.73
2022-08-07T17:59:35.903Z,0.60
2022-08-07T18:03:28.622Z,0.80
2022-08-07T18:07:23.857Z,0.60
2022-08-07T18:12:07.488Z,0.80
2022-08-07T18:14:44.919Z,0.80
2022-08-07T18:18:44.995Z,0.63
2022-08-07T18:22:06.315Z,0.70
2022-08-07T18:25:41.029Z,0.75
2022-08-07T18:30:05.703Z,0.60
2022-08-07T18:33:15.965Z,0.60
2022-08-07T18:36:58.723Z,0.80
2022-08-07T18:40:42.818Z,0.80
2022-08-07T18:45:40.218Z,0.70
2022-08-07T18:50:05.865Z,0.63
2022-08-07T18:52:53.642Z,0.77
2022-08-07T18:57:23.456Z,0.80
2022-08-07T19:01:09.641Z,1.00
2022-08-07T19:05:16.375Z,0.80
2022-08-07T19:08:55.526Z,0.80
2022-08-07T19:12:20.804Z,0.70
2022-08-07T19:17:00.561Z,0.88
2022-08-07T19:20:29.225Z,1.15
2022-08-07T19:23:58.688Z,1.00
2022-08-07T19:28:57.234Z,1.52
2022-08-07T19:32:03.503Z,1.42
2022-08-07T19:35:14.134Z,1.63
2022-08-07T19:38:53.234Z,1.25
2022-08-07T19:42:24.615Z,1.80
2022-08-07T19:46:05.660Z,1.00
2022-08-07T19:49:57.845Z,0.98
2022-08-07T19:54:33.903Z,1.10
2022-08-07T19:58:00.064Z,1.25
2022-08-07T20:00:55.432Z,0.90
2022-08-07T20:04:31.478Z,1.00
2022-08-07T20:08:09.943Z,0.90
2022-08-07T20:12:22.529Z,0.88
2022-08-07T20:15:22.242Z,0.60
2022-08-07T20:18:45.321Z,0.90
2022-08-07T20:22:12.911Z,0.80
2022-08-07T20:25:40.142Z,1.10
2022-08-07T20:29:10.150Z,0.75
2022-08-07T20:32:40.466Z,1.10
2022-08-07T20:36:05.844Z,0.90
2022-08-07T20:40:04.353Z,0.60
2022-08-07T20:43:20.064Z,1.00
2022-08-07T20:46:46.636Z,1.10
2022-08-07T20:50:09.795Z,0.82
2022-08-07T20:54:04.741Z,0.77
2022-08-07T20:57:24.895Z,0.77
2022-08-07T21:00:53.642Z,0.60
2022-08-07T21:04:23.618Z,0.90
2022-08-07T21:07:49.972Z,0.80
2022-08-07T21:11:18.050Z,0.60
2022-08-07T21:14:48.503Z,0.80
2022-08-07T21:18:30.392Z,0.80
2022-08-07T21:21:57.747Z,0.85
2022-08-07T21:25:19.513Z,0.95
2022-08-07T21:28:52.160Z,0.90
2022-08-07T21:32:47.734Z,0.68
2022-08-07T21:36:31.168Z,0.70
2022-08-07T21:40:02.616Z,0.60
2022-08-07T21:43:55.312Z,0.57
2022-08-07T21:47:34.652Z,0.63
2022-08-07T21:51:20.401Z,0.70
2022-08-07T21:55:10.927Z,0.65
2022-08-07T21:58:52.823Z,0.77
2022-08-07T22:02:46.438Z,1.00
2022-08-07T22:06:30.680Z,0.70
2022-08-07T22:09:57.581Z,0.70
2022-08-07T22:13:52.944Z,0.90
2022-08-07T22:17:07.527Z,0.70
2022-08-07T22:20:53.841Z,0.70
2022-08-07T22:24:21.142Z,0.82
2022-08-07T22:28:30.192Z,0.65
2022-08-07T22:32:05.943Z,0.70
2022-08-07T22:35:40.321Z,0.70
2022-08-07T22:39:29.764Z,0.90
2022-08-07T22:43:07.141Z,0.75
2022-08-07T22:47:06.170Z,0.75
2022-08-07T22:50:42.643Z,0.90
2022-08-07T22:54:22.343Z,0.80
2022-08-07T22:58:21.931Z,0.80
2022-08-07T23:02:04.911Z,0.70
2022-08-07T23:06:08.269Z,0.90
2022-08-07T23:10:06.382Z,0.80
2022-08-07T23:14:10.504Z,1.10
2022-08-07T23:17:45.303Z,0.75
2022-08-07T23:21:20.943Z,0.90
2022-08-07T23:25:11.878Z,0.98
2022-08-07T23:28:54.380Z,0.77
2022-08-07T23:34:23.455Z,0.80
2022-08-07T23:36:29.841Z,0.90
2022-08-07T23:40:24.918Z,0.85
2022-08-07T23:44:04.036Z,1.05
2022-08-07T23:47:47.960Z,1.00
2022-08-07T23:53:06.104Z,0.95
2022-08-07T23:55:10.466Z,0.80
